Time;durP1;ratioP1;P1;durP2;ratioP2;P2;SDS_P1;SDS_P2;PMS_P1;PMS_P2;Temp;Humidity;BMP_temperature;BMP_pressure;BME280_temperature;BME280_humidity;BME280_pressure;Samples;Min_cycle;Max_cycle;Signal;HPM_P1;HPM_P2
2022/04/08 00:01:41;;;;;;;0.30;0.20;;;8.20;99.90;;;;;;5037920;28;20874;-78
2022/04/08 00:04:07;;;;;;;0.70;0.40;;;8.20;99.90;;;;;;5037139;28;20443;-78
2022/04/08 00:06:34;;;;;;;0.30;0.20;;;8.10;99.90;;;;;;5035909;28;20485;-77
2022/04/08 00:09:03;;;;;;;0.30;0.30;;;8.10;99.90;;;;;;5035926;28;20450;-77
2022/04/08 00:11:30;;;;;;;0.30;0.30;;;8.10;99.90;;;;;;5035937;28;20474;-77
2022/04/08 00:13:56;;;;;;;0.30;0.30;;;8.10;99.90;;;;;;5035843;28;20795;-78
2022/04/08 00:16:23;;;;;;;0.30;0.30;;;8.10;99.90;;;;;;5035798;28;20453;-77
2022/04/08 00:18:50;;;;;;;0.93;0.63;;;8.10;99.90;;;;;;5035685;28;20453;-77
2022/04/08 00:21:17;;;;;;;0.30;0.30;;;8.10;99.90;;;;;;5035595;28;20489;-77
2022/04/08 00:23:43;;;;;;;0.30;0.30;;;8.00;99.90;;;;;;5035584;28;20791;-78
2022/04/08 00:26:12;;;;;;;0.30;0.30;;;8.00;99.90;;;;;;5035465;28;20478;-78
2022/04/08 00:28:38;;;;;;;0.30;0.20;;;8.00;99.90;;;;;;5035526;28;20458;-78
2022/04/08 00:31:05;;;;;;;0.30;0.20;;;8.10;99.90;;;;;;5035385;28;20478;-78
2022/04/08 00:33:32;;;;;;;0.30;0.30;;;8.10;99.90;;;;;;5035095;28;20946;-77
2022/04/08 00:35:59;;;;;;;0.30;0.20;;;8.00;99.90;;;;;;5035112;28;20474;-78
2022/04/08 00:38:26;;;;;;;0.30;0.20;;;8.10;99.90;;;;;;5035061;28;20443;-77
2022/04/08 00:40:53;;;;;;;0.30;0.30;;;8.10;99.90;;;;;;5034982;28;20451;-77
2022/04/08 00:43:32;;;;;;;0.97;0.40;;;8.00;99.90;;;;;;5034967;28;20482;-78
2022/04/08 00:45:59;;;;;;;0.40;0.33;;;8.00;99.90;;;;;;5035183;28;20513;-78
2022/04/08 00:48:26;;;;;;;0.30;0.30;;;8.00;99.90;;;;;;5035117;28;20454;-78
2022/04/08 00:50:53;;;;;;;0.30;0.30;;;8.10;99.90;;;;;;5035085;28;20822;-78
2022/04/08 00:53:20;;;;;;;0.40;0.30;;;8.00;99.90;;;;;;5035047;28;20458;-78
2022/04/08 00:55:47;;;;;;;0.30;0.30;;;8.00;99.90;;;;;;5034973;28;20442;-78
2022/04/08 00:58:14;;;;;;;0.50;0.50;;;7.90;99.90;;;;;;5035600;28;20463;-78
2022/04/08 01:00:43;;;;;;;0.30;0.30;;;8.00;99.90;;;;;;5034867;28;20470;-78
2022/04/08 01:03:10;;;;;;;0.30;0.20;;;8.10;99.90;;;;;;5034585;28;20942;-78
2022/04/08 01:05:37;;;;;;;0.30;0.20;;;8.00;99.90;;;;;;5034404;28;20875;-78
2022/04/08 01:08:05;;;;;;;0.30;0.20;;;8.00;99.90;;;;;;5034740;28;20450;-79
2022/04/08 01:10:32;;;;;;;0.30;0.20;;;7.90;99.90;;;;;;5034679;28;20466;-79
2022/04/08 01:12:59;;;;;;;0.30;0.20;;;7.90;99.90;;;;;;5034685;28;20435;-79
2022/04/08 01:15:26;;;;;;;0.30;0.20;;;7.90;99.90;;;;;;5034279;28;21041;-79
2022/04/08 01:17:54;;;;;;;0.30;0.20;;;7.90;99.90;;;;;;5034312;28;20977;-79
2022/04/08 01:20:20;;;;;;;0.30;0.30;;;7.90;99.90;;;;;;5034437;28;20462;-78
2022/04/08 01:22:47;;;;;;;0.30;0.20;;;7.90;99.90;;;;;;5034212;28;20791;-78
2022/04/08 01:25:15;;;;;;;2.30;0.50;;;7.90;99.90;;;;;;5034565;28;20482;-78
2022/04/08 01:27:43;;;;;;;0.30;0.30;;;7.80;99.90;;;;;;5034383;28;20474;-78
2022/04/08 01:30:12;;;;;;;0.50;0.30;;;7.80;99.90;;;;;;5034240;28;20474;-79
2022/04/08 01:32:39;;;;;;;0.30;0.20;;;7.80;99.90;;;;;;5034188;28;20454;-78
2022/04/08 01:35:06;;;;;;;0.30;0.30;;;7.90;99.90;;;;;;5034403;28;20465;-78
2022/04/08 01:37:33;;;;;;;0.30;0.30;;;7.90;99.90;;;;;;5033837;28;20821;-78
2022/04/08 01:40:00;;;;;;;0.30;0.20;;;7.90;99.90;;;;;;5033785;28;20874;-78
2022/04/08 01:42:28;;;;;;;0.30;0.20;;;7.80;99.90;;;;;;5033794;28;20914;-78
2022/04/08 01:44:55;;;;;;;0.30;0.20;;;7.80;99.90;;;;;;4994702;28;20444;-78
2022/04/08 01:47:23;;;;;;;0.30;0.20;;;7.80;99.90;;;;;;4994306;28;21008;-78
2022/04/08 01:49:49;;;;;;;0.30;0.27;;;7.80;99.90;;;;;;4994588;28;20472;-78
2022/04/08 01:52:16;;;;;;;0.30;0.27;;;7.90;99.90;;;;;;4994571;28;20450;-78
2022/04/08 01:54:43;;;;;;;0.30;0.30;;;7.80;99.90;;;;;;4994652;28;20452;-79
2022/04/08 01:57:10;;;;;;;0.40;0.30;;;7.80;99.90;;;;;;4994492;28;20445;-78
2022/04/08 01:59:38;;;;;;;0.30;0.20;;;7.80;99.90;;;;;;4994415;28;20444;-78
2022/04/08 02:02:06;;;;;;;0.30;0.20;;;7.80;99.90;;;;;;4994084;28;20455;-78
2022/04/08 02:04:32;;;;;;;0.30;0.30;;;7.80;99.90;;;;;;4994422;28;20496;-78
2022/04/08 02:07:02;;;;;;;0.30;0.20;;;7.70;99.90;;;;;;4994512;28;20484;-78
2022/04/08 02:09:28;;;;;;;0.30;0.20;;;7.70;99.90;;;;;;4994323;28;20457;-79
2022/04/08 02:11:55;;;;;;;0.30;0.20;;;7.70;99.90;;;;;;4994296;28;20448;-78
2022/04/08 02:14:22;;;;;;;0.30;0.27;;;7.60;99.90;;;;;;4994014;28;20859;-79
2022/04/08 02:16:50;;;;;;;0.30;0.30;;;7.60;99.90;;;;;;4995823;28;20449;-79
2022/04/08 02:19:17;;;;;;;0.40;0.33;;;7.60;99.90;;;;;;4993998;28;20959;-78
2022/04/08 02:21:44;;;;;;;0.30;0.20;;;7.50;99.90;;;;;;4994165;28;20468;-78
2022/04/08 02:24:13;;;;;;;0.30;0.30;;;7.50;99.90;;;;;;4994126;28;20450;-78
2022/04/08 02:26:40;;;;;;;0.30;0.20;;;7.50;99.90;;;;;;4994031;28;20484;-79
2022/04/08 02:29:07;;;;;;;0.30;0.30;;;7.40;99.90;;;;;;4994281;28;20448;-78
2022/04/08 02:31:33;;;;;;;0.30;0.20;;;7.50;99.90;;;;;;4994045;28;20464;-79
2022/04/08 02:34:01;;;;;;;0.30;0.20;;;7.40;99.90;;;;;;4993734;28;20955;-79
2022/04/08 02:36:28;;;;;;;0.43;0.43;;;7.40;99.90;;;;;;4994007;28;20475;-78
2022/04/08 02:38:55;;;;;;;0.30;0.30;;;7.40;99.90;;;;;;4993990;28;20443;-79
2022/04/08 02:41:21;;;;;;;0.30;0.30;;;7.30;99.90;;;;;;4993892;28;20476;-79
2022/04/08 02:43:48;;;;;;;0.30;0.30;;;7.30;99.90;;;;;;5015570;28;20486;-78
2022/04/08 02:46:15;;;;;;;0.30;0.20;;;7.30;99.90;;;;;;5033199;28;20583;-79
2022/04/08 02:48:42;;;;;;;0.30;0.30;;;7.30;99.90;;;;;;5033260;28;20454;-79
2022/04/08 02:51:10;;;;;;;0.30;0.30;;;7.20;99.90;;;;;;5033155;28;20874;-78
2022/04/08 02:53:37;;;;;;;0.30;0.30;;;7.20;99.90;;;;;;5032907;28;20980;-78
2022/04/08 02:56:04;;;;;;;0.30;0.30;;;7.20;99.90;;;;;;5033210;28;20442;-78
2022/04/08 02:58:31;;;;;;;0.30;0.30;;;7.20;99.90;;;;;;5033139;28;20461;-78
2022/04/08 03:00:59;;;;;;;0.30;0.30;;;7.20;99.90;;;;;;5033086;28;20463;-78
2022/04/08 03:03:27;;;;;;;0.30;0.30;;;7.20;99.90;;;;;;5033388;28;20451;-78
2022/04/08 03:05:53;;;;;;;0.30;0.30;;;7.20;99.90;;;;;;5032757;28;20528;-78
2022/04/08 03:08:22;;;;;;;0.30;0.30;;;7.20;99.90;;;;;;5033055;28;20509;-79
2022/04/08 03:10:49;;;;;;;0.30;0.30;;;7.20;99.90;;;;;;5032949;28;20475;-78
2022/04/08 03:13:16;;;;;;;0.30;0.20;;;7.30;99.90;;;;;;5032893;28;20457;-78
2022/04/08 03:15:43;;;;;;;0.30;0.30;;;7.30;99.90;;;;;;5036807;28;20458;-78
2022/04/08 03:18:10;;;;;;;0.30;0.30;;;7.20;99.90;;;;;;5037119;28;20446;-78
2022/04/08 03:20:36;;;;;;;0.30;0.30;;;7.20;99.90;;;;;;5036408;28;20973;-78
2022/04/08 03:23:04;;;;;;;0.30;0.30;;;7.10;99.90;;;;;;5036714;28;20451;-77
2022/04/08 03:25:32;;;;;;;4.43;0.47;;;7.10;99.90;;;;;;5036650;28;20478;-78
2022/04/08 03:27:58;;;;;;;0.30;0.20;;;7.10;99.90;;;;;;5036413;28;20447;-78
2022/04/08 03:30:27;;;;;;;0.30;0.30;;;7.10;99.90;;;;;;5036521;28;20467;-78
2022/04/08 03:32:54;;;;;;;0.40;0.30;;;7.10;99.90;;;;;;5036570;28;20512;-78
2022/04/08 03:35:21;;;;;;;0.77;0.77;;;7.00;99.90;;;;;;5036467;28;20447;-78
2022/04/08 03:37:47;;;;;;;0.30;0.30;;;7.10;99.90;;;;;;5036701;28;20451;-78
2022/04/08 03:40:14;;;;;;;0.30;0.20;;;7.10;99.90;;;;;;5036065;28;20470;-77
2022/04/08 03:42:42;;;;;;;0.40;0.40;;;7.00;99.90;;;;;;5035922;28;20450;-78
2022/04/08 03:45:09;;;;;;;0.50;0.30;;;7.10;99.90;;;;;;5036401;28;20434;-78
2022/04/08 03:47:36;;;;;;;0.30;0.30;;;7.10;99.90;;;;;;5036256;28;20505;-78
2022/04/08 03:50:03;;;;;;;0.30;0.20;;;7.10;99.90;;;;;;5036236;28;20470;-78
2022/04/08 03:52:32;;;;;;;0.30;0.20;;;7.10;99.90;;;;;;5036449;28;20789;-78
2022/04/08 03:54:59;;;;;;;0.30;0.20;;;7.10;99.90;;;;;;5035873;28;20461;-78
2022/04/08 03:57:26;;;;;;;0.30;0.30;;;7.10;99.90;;;;;;5036179;28;20477;-78
2022/04/08 03:59:55;;;;;;;0.40;0.30;;;7.10;99.90;;;;;;5036015;28;20473;-77
2022/04/08 04:02:22;;;;;;;0.40;0.40;;;7.10;99.90;;;;;;5036147;28;20486;-77
2022/04/08 04:04:49;;;;;;;0.30;0.30;;;7.10;99.90;;;;;;5036033;28;20455;-77
2022/04/08 04:07:17;;;;;;;0.30;0.30;;;7.10;99.90;;;;;;5035917;28;20536;-78
2022/04/08 04:09:44;;;;;;;0.30;0.20;;;7.10;99.90;;;;;;5035820;28;20481;-77
2022/04/08 04:12:11;;;;;;;0.30;0.30;;;7.10;99.90;;;;;;5035856;28;20493;-78
2022/04/08 04:14:38;;;;;;;0.40;0.40;;;7.00;99.90;;;;;;5036025;28;20450;-78
2022/04/08 04:17:06;;;;;;;0.30;0.30;;;7.10;99.90;;;;;;5035447;28;20821;-78
2022/04/08 04:19:32;;;;;;;0.30;0.30;;;7.10;99.90;;;;;;5035436;28;20949;-78
2022/04/08 04:21:59;;;;;;;0.30;0.30;;;7.10;99.90;;;;;;5035666;28;20447;-78
2022/04/08 04:24:26;;;;;;;0.30;0.30;;;7.10;99.90;;;;;;5035345;28;20461;-78
2022/04/08 04:26:53;;;;;;;0.30;0.30;;;7.00;99.90;;;;;;5035467;28;20489;-78
2022/04/08 04:29:19;;;;;;;0.30;0.30;;;7.00;99.90;;;;;;5035436;28;20447;-78
2022/04/08 04:31:46;;;;;;;0.30;0.30;;;7.00;99.90;;;;;;5035474;28;20823;-78
2022/04/08 04:34:15;;;;;;;0.30;0.30;;;7.00;99.90;;;;;;5035650;28;20457;-78
2022/04/08 04:36:42;;;;;;;0.30;0.30;;;6.90;99.90;;;;;;5035086;28;20439;-78
2022/04/08 04:39:08;;;;;;;0.30;0.23;;;6.90;99.90;;;;;;5035364;28;20446;-78
2022/04/08 04:41:35;;;;;;;0.30;0.20;;;6.90;99.90;;;;;;5035720;28;20458;-78
2022/04/08 04:44:02;;;;;;;0.30;0.20;;;6.90;99.90;;;;;;5034766;28;21017;-78
2022/04/08 04:46:29;;;;;;;0.30;0.30;;;6.90;99.90;;;;;;5035082;28;20490;-78
2022/04/08 04:48:55;;;;;;;0.40;0.40;;;6.90;99.90;;;;;;5035135;28;20454;-78
2022/04/08 04:51:23;;;;;;;0.30;0.20;;;6.90;99.90;;;;;;5034999;28;20470;-78
2022/04/08 04:53:50;;;;;;;0.30;0.20;;;6.90;99.90;;;;;;5035047;28;20454;-78
2022/04/08 04:56:17;;;;;;;0.37;0.37;;;6.90;99.90;;;;;;5035850;28;20458;-78
2022/04/08 04:58:44;;;;;;;0.30;0.30;;;6.90;99.90;;;;;;5034952;28;20537;-78
2022/04/08 05:01:10;;;;;;;0.30;0.30;;;6.90;99.90;;;;;;5034822;28;20463;-78
2022/04/08 05:03:37;;;;;;;0.30;0.30;;;6.90;99.90;;;;;;5034545;28;20964;-78
2022/04/08 05:06:04;;;;;;;0.30;0.20;;;7.00;99.90;;;;;;5034753;28;20450;-78
2022/04/08 05:08:32;;;;;;;0.30;0.20;;;7.00;99.90;;;;;;5034763;28;20459;-78
2022/04/08 05:10:59;;;;;;;0.30;0.30;;;7.00;99.90;;;;;;5034305;28;20471;-78
2022/04/08 05:13:25;;;;;;;0.30;0.30;;;7.10;99.90;;;;;;5035484;28;20483;-78
2022/04/08 05:15:52;;;;;;;2.00;0.33;;;7.00;99.90;;;;;;5034581;28;20455;-78
2022/04/08 05:18:19;;;;;;;0.40;0.30;;;7.00;99.90;;;;;;5034562;28;20446;-78
2022/04/08 05:20:45;;;;;;;0.30;0.20;;;7.00;99.90;;;;;;5034477;28;20471;-79
2022/04/08 05:23:12;;;;;;;0.40;0.30;;;7.00;99.90;;;;;;5034206;28;20431;-79
2022/04/08 05:25:40;;;;;;;0.40;0.40;;;7.10;99.90;;;;;;5034310;28;20959;-78
2022/04/08 05:28:11;;;;;;;0.30;0.30;;;7.10;99.90;;;;;;5034297;28;20478;-78
2022/04/08 05:30:38;;;;;;;0.30;0.20;;;7.20;99.90;;;;;;5034494;28;21028;-77
2022/04/08 05:33:05;;;;;;;0.30;0.20;;;7.20;99.90;;;;;;5034289;28;20446;-78
2022/04/08 05:35:32;;;;;;;0.30;0.20;;;7.20;99.90;;;;;;5034117;28;20802;-80
2022/04/08 05:37:58;;;;;;;1.37;0.40;;;7.20;99.90;;;;;;5033314;28;20445;-78
2022/04/08 05:40:25;;;;;;;0.30;0.30;;;7.20;99.90;;;;;;5033802;28;20996;-78
2022/04/08 05:42:53;;;;;;;0.30;0.20;;;7.30;99.90;;;;;;5033892;28;20478;-77
2022/04/08 05:45:21;;;;;;;0.30;0.20;;;7.20;99.90;;;;;;5034158;28;20434;-77
2022/04/08 05:47:49;;;;;;;0.30;0.30;;;7.30;99.90;;;;;;5034234;28;20478;-78
2022/04/08 05:50:16;;;;;;;0.30;0.20;;;7.30;99.90;;;;;;5034191;28;20475;-77
2022/04/08 05:52:43;;;;;;;0.40;0.40;;;7.30;99.90;;;;;;5034087;28;20484;-77
2022/04/08 05:55:11;;;;;;;0.30;0.20;;;7.30;99.90;;;;;;5033858;28;20968;-78
2022/04/08 05:57:40;;;;;;;0.30;0.20;;;7.30;99.90;;;;;;5033602;28;20950;-78
2022/04/08 06:00:10;;;;;;;0.33;0.30;;;7.30;99.90;;;;;;5034000;28;20474;-78
2022/04/08 06:02:37;;;;;;;0.30;0.30;;;7.30;99.90;;;;;;5033823;28;20488;-78
2022/04/08 06:05:04;;;;;;;0.30;0.20;;;7.30;99.90;;;;;;5033481;28;20926;-78
2022/04/08 06:07:31;;;;;;;0.30;0.30;;;7.30;99.90;;;;;;5033338;28;20478;-78
2022/04/08 06:10:00;;;;;;;0.30;0.20;;;7.20;99.90;;;;;;5033609;28;20850;-78
2022/04/08 06:12:27;;;;;;;0.30;0.20;;;7.20;99.90;;;;;;5033644;28;20446;-78
2022/04/08 06:14:54;;;;;;;0.30;0.30;;;7.20;99.90;;;;;;5033678;28;20459;-77
2022/04/08 06:17:22;;;;;;;0.30;0.20;;;7.10;99.90;;;;;;5033817;28;20438;-78
2022/04/08 06:19:50;;;;;;;0.30;0.30;;;7.00;99.90;;;;;;5033508;28;20473;-77
2022/04/08 06:22:17;;;;;;;0.30;0.30;;;7.00;99.90;;;;;;5033534;28;20885;-77
2022/04/08 06:24:44;;;;;;;0.30;0.30;;;7.00;99.90;;;;;;5033487;28;20450;-80
2022/04/08 06:27:10;;;;;;;0.30;0.30;;;6.90;99.90;;;;;;5033376;28;20490;-78
2022/04/08 06:29:37;;;;;;;0.30;0.30;;;7.00;99.90;;;;;;5034200;28;20435;-78
2022/04/08 06:32:04;;;;;;;0.60;0.50;;;6.90;99.90;;;;;;5033488;28;20438;-78
2022/04/08 06:34:32;;;;;;;0.30;0.20;;;6.90;99.90;;;;;;5033423;28;20470;-78
2022/04/08 06:37:00;;;;;;;0.30;0.20;;;6.80;99.90;;;;;;5033396;28;20447;-78
2022/04/08 06:39:26;;;;;;;0.30;0.30;;;6.80;99.90;;;;;;5033319;28;20439;-78
2022/04/08 06:41:53;;;;;;;0.30;0.30;;;6.70;99.90;;;;;;5033521;28;20454;-78
2022/04/08 06:44:20;;;;;;;0.30;0.20;;;6.70;99.90;;;;;;5033486;28;20853;-78
2022/04/08 06:46:46;;;;;;;0.30;0.30;;;6.70;99.90;;;;;;5033371;28;20447;-78
2022/04/08 06:49:13;;;;;;;0.30;0.30;;;6.70;99.90;;;;;;5037356;28;20442;-78
2022/04/08 06:51:41;;;;;;;0.30;0.30;;;6.60;99.90;;;;;;5037128;28;20546;-78
2022/04/08 06:54:08;;;;;;;0.30;0.30;;;6.60;99.90;;;;;;5037569;28;20443;-78
2022/04/08 06:56:35;;;;;;;0.30;0.20;;;6.60;99.90;;;;;;5037292;28;20451;-78
2022/04/08 06:59:01;;;;;;;0.30;0.20;;;6.60;99.90;;;;;;5037028;28;20934;-78
2022/04/08 07:01:29;;;;;;;0.30;0.20;;;6.60;99.90;;;;;;5037106;28;20886;-78
2022/04/08 07:03:56;;;;;;;0.30;0.20;;;6.60;99.90;;;;;;5037249;28;20551;-77
2022/04/08 07:06:23;;;;;;;0.30;0.20;;;6.60;99.90;;;;;;5037419;28;20957;-78
2022/04/08 07:08:51;;;;;;;0.30;0.20;;;6.60;99.90;;;;;;5037206;28;20486;-78
2022/04/08 07:11:18;;;;;;;0.30;0.30;;;6.60;99.90;;;;;;5037063;28;20470;-78
2022/04/08 07:13:44;;;;;;;0.30;0.30;;;6.60;99.90;;;;;;5037078;28;20453;-77
2022/04/08 07:16:11;;;;;;;0.67;0.30;;;6.60;99.90;;;;;;5036978;28;20438;-77
2022/04/08 07:18:38;;;;;;;0.30;0.30;;;6.60;99.90;;;;;;5036963;28;20442;-78
2022/04/08 07:21:05;;;;;;;0.30;0.20;;;6.60;99.90;;;;;;5036969;28;20469;-78
2022/04/08 07:23:32;;;;;;;0.50;0.30;;;6.70;99.90;;;;;;5036835;28;20453;-77
2022/04/08 07:26:00;;;;;;;0.30;0.30;;;6.70;99.90;;;;;;5036772;28;20454;-78
2022/04/08 07:28:26;;;;;;;0.30;0.30;;;6.60;99.90;;;;;;5036752;28;20470;-79
2022/04/08 07:30:53;;;;;;;0.37;0.27;;;6.70;99.90;;;;;;5036713;28;20481;-78
2022/04/08 07:33:20;;;;;;;0.30;0.20;;;6.70;99.90;;;;;;5036634;28;20451;-78
2022/04/08 07:35:46;;;;;;;0.30;0.20;;;6.60;99.90;;;;;;5036564;28;20473;-78
2022/04/08 07:38:13;;;;;;;0.30;0.20;;;6.50;99.90;;;;;;5036442;28;20465;-79
2022/04/08 07:40:40;;;;;;;0.30;0.20;;;6.60;99.90;;;;;;5036536;28;20493;-78
2022/04/08 07:43:08;;;;;;;0.30;0.20;;;6.60;99.90;;;;;;5036297;28;20989;-78
2022/04/08 07:45:35;;;;;;;0.30;0.30;;;6.50;99.90;;;;;;5036625;28;20455;-78
2022/04/08 07:48:02;;;;;;;0.30;0.20;;;6.60;99.90;;;;;;5036109;28;20481;-78
2022/04/08 07:50:29;;;;;;;0.30;0.30;;;6.60;99.90;;;;;;5036315;28;20466;-78
2022/04/08 07:52:56;;;;;;;0.30;0.30;;;6.60;99.90;;;;;;5036287;28;20818;-78
2022/04/08 07:55:24;;;;;;;0.43;0.40;;;6.60;99.90;;;;;;5036130;28;20446;-79
2022/04/08 07:57:52;;;;;;;0.30;0.20;;;6.70;99.90;;;;;;5036222;28;20439;-79
2022/04/08 08:00:22;;;;;;;0.30;0.27;;;6.90;99.90;;;;;;5035231;28;20482;-79
2022/04/08 08:02:50;;;;;;;0.30;0.20;;;7.00;99.90;;;;;;5036108;28;20430;-79
2022/04/08 08:05:17;;;;;;;0.30;0.20;;;7.00;99.90;;;;;;5035991;28;20447;-79
2022/04/08 08:07:45;;;;;;;0.30;0.20;;;7.00;99.90;;;;;;5035859;28;20482;-79
2022/04/08 08:10:15;;;;;;;0.30;0.30;;;7.00;99.90;;;;;;5035862;28;20470;-79
2022/04/08 08:12:42;;;;;;;0.30;0.20;;;6.90;99.90;;;;;;5035585;28;20937;-78
2022/04/08 08:15:10;;;;;;;0.30;0.20;;;7.00;99.90;;;;;;5035779;28;20470;-78
2022/04/08 08:17:38;;;;;;;0.30;0.20;;;7.00;99.90;;;;;;5035815;28;20466;-78
2022/04/08 08:20:06;;;;;;;0.30;0.20;;;7.00;99.90;;;;;;5035384;28;21004;-78
2022/04/08 08:22:33;;;;;;;0.30;0.20;;;7.00;99.90;;;;;;5035739;28;20441;-78
2022/04/08 08:25:00;;;;;;;0.30;0.30;;;7.00;99.90;;;;;;5035357;28;20486;-78
2022/04/08 08:27:26;;;;;;;0.30;0.30;;;7.00;99.90;;;;;;5035376;28;20497;-78
2022/04/08 08:29:53;;;;;;;0.30;0.20;;;7.10;99.90;;;;;;5035477;28;20482;-78
2022/04/08 08:32:21;;;;;;;0.30;0.20;;;7.20;99.90;;;;;;5035206;28;20931;-78
2022/04/08 08:34:49;;;;;;;0.40;0.30;;;7.30;99.90;;;;;;5035302;28;20927;-79
2022/04/08 08:37:16;;;;;;;0.30;0.20;;;7.40;99.90;;;;;;5035470;28;20447;-78
2022/04/08 08:39:43;;;;;;;0.30;0.20;;;7.50;99.90;;;;;;5035540;28;20471;-78
2022/04/08 08:42:10;;;;;;;0.30;0.30;;;7.60;99.90;;;;;;5035265;28;20443;-80
2022/04/08 08:44:37;;;;;;;0.30;0.30;;;7.50;99.90;;;;;;5034820;28;20928;-79
2022/04/08 08:47:07;;;;;;;0.30;0.20;;;7.50;99.90;;;;;;5035206;28;20454;-79
2022/04/08 08:49:35;;;;;;;0.30;0.20;;;7.50;99.90;;;;;;5034886;28;20947;-78
2022/04/08 08:52:06;;;;;;;0.30;0.20;;;7.40;99.90;;;;;;5034880;28;20914;-78
2022/04/08 08:54:34;;;;;;;0.30;0.30;;;7.20;99.90;;;;;;5035320;28;20430;-78
2022/04/08 08:57:02;;;;;;;0.30;0.20;;;7.20;99.90;;;;;;5034647;28;20903;-78
2022/04/08 08:59:29;;;;;;;0.30;0.20;;;7.10;99.90;;;;;;5034612;28;21097;-78
2022/04/08 09:02:00;;;;;;;0.30;0.20;;;7.00;99.90;;;;;;5034999;28;20435;-78
2022/04/08 09:04:27;;;;;;;0.30;0.30;;;7.00;99.90;;;;;;5034942;28;20427;-80
2022/04/08 09:06:54;;;;;;;0.37;0.30;;;7.00;99.90;;;;;;5034861;28;20435;-77
2022/04/08 09:09:30;;;;;;;0.40;0.33;;;7.00;99.90;;;;;;5034658;28;20486;-78
2022/04/08 09:11:57;;;;;;;0.30;0.30;;;7.10;99.90;;;;;;5033428;28;20457;-77
2022/04/08 09:14:27;;;;;;;0.30;0.30;;;7.20;99.90;;;;;;5034725;28;20442;-78
2022/04/08 09:17:01;;;;;;;0.30;0.20;;;7.30;99.90;;;;;;5034645;28;20427;-77
2022/04/08 09:19:33;;;;;;;0.30;0.20;;;7.50;99.90;;;;;;5034567;28;20431;-78
2022/04/08 09:22:00;;;;;;;0.30;0.27;;;7.60;99.90;;;;;;5034242;28;20853;-78
2022/04/08 09:24:27;;;;;;;0.30;0.20;;;7.60;99.90;;;;;;5034256;28;20451;-80
2022/04/08 09:26:56;;;;;;;0.30;0.20;;;7.60;99.90;;;;;;5034022;28;20482;-78
2022/04/08 09:29:23;;;;;;;0.30;0.30;;;7.70;99.90;;;;;;5033832;28;20470;-78
2022/04/08 09:31:51;;;;;;;0.30;0.23;;;7.60;99.90;;;;;;5034284;28;20446;-78
2022/04/08 09:34:19;;;;;;;0.30;0.30;;;7.60;99.90;;;;;;5034334;28;20442;-78
2022/04/08 09:36:47;;;;;;;0.30;0.30;;;7.50;99.90;;;;;;5034329;28;20453;-78
2022/04/08 09:39:15;;;;;;;0.30;0.30;;;7.50;99.90;;;;;;5034208;28;20446;-78
2022/04/08 09:41:43;;;;;;;0.30;0.20;;;7.40;99.90;;;;;;5034303;28;20474;-79
2022/04/08 09:44:14;;;;;;;0.30;0.20;;;7.30;99.90;;;;;;5033944;28;20482;-80
2022/04/08 09:46:42;;;;;;;0.30;0.30;;;7.30;99.90;;;;;;5034119;28;20438;-79
2022/04/08 09:49:09;;;;;;;0.30;0.20;;;7.20;99.90;;;;;;5035341;28;20491;-79
2022/04/08 09:51:37;;;;;;;0.50;0.30;;;7.20;99.90;;;;;;5034039;28;20470;-79
2022/04/08 09:54:06;;;;;;;0.30;0.23;;;7.20;99.90;;;;;;5033709;28;20439;-79
2022/04/08 09:56:35;;;;;;;0.30;0.20;;;7.20;99.90;;;;;;5033937;28;20462;-78
2022/04/08 09:59:05;;;;;;;0.30;0.20;;;7.30;99.90;;;;;;5033875;28;20526;-79
2022/04/08 10:01:36;;;;;;;0.30;0.30;;;7.30;99.90;;;;;;5033824;28;20503;-79
2022/04/08 10:04:05;;;;;;;0.30;0.20;;;7.30;99.90;;;;;;5034579;28;20431;-79
2022/04/08 10:06:32;;;;;;;0.30;0.30;;;7.20;99.90;;;;;;5033996;28;20457;-79
2022/04/08 10:09:00;;;;;;;0.30;0.30;;;7.10;99.90;;;;;;5033366;28;21016;-79
2022/04/08 10:11:35;;;;;;;0.40;0.40;;;7.10;99.90;;;;;;5033706;28;20467;-78
2022/04/08 10:14:14;;;;;;;0.30;0.30;;;7.10;99.90;;;;;;5033406;28;20477;-79
2022/04/08 10:16:42;;;;;;;0.30;0.30;;;7.20;99.90;;;;;;5033419;28;20894;-79
2022/04/08 10:19:13;;;;;;;0.30;0.30;;;7.10;99.90;;;;;;5033855;28;20466;-79
2022/04/08 10:21:40;;;;;;;0.30;0.30;;;7.10;99.90;;;;;;5033753;28;20512;-79
2022/04/08 10:24:13;;;;;;;0.30;0.30;;;7.00;99.90;;;;;;5033573;28;20458;-79
2022/04/08 10:27:00;;;;;;;0.30;0.30;;;7.00;99.90;;;;;;5033726;28;20454;-80
2022/04/08 10:29:27;;;;;;;0.30;0.30;;;7.00;99.90;;;;;;5033343;28;20536;-80
2022/04/08 10:32:00;;;;;;;0.30;0.30;;;7.00;99.90;;;;;;5033523;28;20434;-79
2022/04/08 10:34:32;;;;;;;0.40;0.30;;;7.00;99.90;;;;;;5034024;28;20970;-79
2022/04/08 10:36:59;;;;;;;0.30;0.30;;;7.00;99.90;;;;;;5033524;28;20481;-79
2022/04/08 10:39:26;;;;;;;0.30;0.30;;;7.10;99.90;;;;;;5033228;28;20924;-78
2022/04/08 10:41:54;;;;;;;0.30;0.20;;;7.00;99.90;;;;;;5033819;28;20424;-78
2022/04/08 10:44:34;;;;;;;0.30;0.30;;;7.10;99.90;;;;;;5033247;28;20494;-77
2022/04/08 10:47:10;;;;;;;0.30;0.30;;;7.10;99.90;;;;;;5033513;28;20538;-78
2022/04/08 10:49:48;;;;;;;0.30;0.20;;;7.10;99.90;;;;;;5033552;28;20476;-78
2022/04/08 10:52:16;;;;;;;0.30;0.30;;;7.00;99.90;;;;;;5034796;28;20517;-78
2022/04/08 10:54:43;;;;;;;0.30;0.30;;;7.10;99.90;;;;;;5034416;28;20450;-79
2022/04/08 10:57:09;;;;;;;0.30;0.20;;;7.00;99.90;;;;;;5033686;28;20458;-79
2022/04/08 10:59:36;;;;;;;0.30;0.20;;;7.00;99.90;;;;;;5034028;28;20777;-79
2022/04/08 11:02:10;;;;;;;0.30;0.20;;;6.90;99.90;;;;;;5034766;28;20436;-80
2022/04/08 11:04:37;;;;;;;0.30;0.20;;;6.90;99.90;;;;;;5034243;28;20438;-80
2022/04/08 11:07:06;;;;;;;0.30;0.20;;;6.90;99.90;;;;;;5033993;28;20441;-79
2022/04/08 11:09:34;;;;;;;0.30;0.20;;;7.00;99.90;;;;;;5033469;28;20498;-80
2022/04/08 11:12:02;;;;;;;0.30;0.30;;;7.00;99.90;;;;;;5034048;28;20485;-77
2022/04/08 11:14:29;;;;;;;0.30;0.30;;;7.00;99.90;;;;;;5033272;28;20811;-77
2022/04/08 11:16:56;;;;;;;0.30;0.30;;;7.00;99.90;;;;;;5032857;28;20911;-80
2022/04/08 11:19:25;;;;;;;0.30;0.30;;;7.00;99.90;;;;;;5033468;28;20447;-80
2022/04/08 11:21:52;;;;;;;0.30;0.30;;;7.10;99.90;;;;;;5032945;28;20781;-80
2022/04/08 11:24:19;;;;;;;0.30;0.20;;;7.00;99.90;;;;;;5032984;28;20982;-79
2022/04/08 11:26:48;;;;;;;0.33;0.27;;;7.10;99.90;;;;;;5033466;28;20797;-79
2022/04/08 11:29:17;;;;;;;0.30;0.30;;;7.00;99.90;;;;;;5033001;28;20847;-80
2022/04/08 11:31:45;;;;;;;0.30;0.30;;;7.00;99.90;;;;;;5032624;28;20470;-80
2022/04/08 11:34:13;;;;;;;0.40;0.40;;;7.10;99.90;;;;;;5032992;28;20469;-80
2022/04/08 11:36:43;;;;;;;0.30;0.30;;;7.00;99.90;;;;;;5036617;28;20427;-80
2022/04/08 11:39:10;;;;;;;0.30;0.30;;;7.00;99.90;;;;;;5036566;28;20419;-80
2022/04/08 11:41:38;;;;;;;0.30;0.30;;;7.00;99.90;;;;;;5036444;28;20469;-80
2022/04/08 11:44:07;;;;;;;0.40;0.30;;;7.10;99.90;;;;;;5035961;28;20486;-81
2022/04/08 11:46:34;;;;;;;0.30;0.20;;;7.00;99.90;;;;;;5036521;28;20439;-80
2022/04/08 11:49:04;;;;;;;0.30;0.30;;;7.10;99.90;;;;;;5036011;28;21002;-80
2022/04/08 11:51:30;;;;;;;0.30;0.30;;;7.20;99.90;;;;;;5036377;28;20506;-81
2022/04/08 11:54:03;;;;;;;0.40;0.30;;;7.30;99.90;;;;;;5035922;28;20453;-81
2022/04/08 11:56:30;;;;;;;0.30;0.30;;;7.30;99.90;;;;;;5036338;28;20466;-81
2022/04/08 11:58:59;;;;;;;0.30;0.20;;;7.30;99.90;;;;;;5036130;28;20446;-81
2022/04/08 12:01:29;;;;;;;0.30;0.30;;;7.30;99.90;;;;;;5035750;28;21057;-81
2022/04/08 12:04:00;;;;;;;0.30;0.30;;;7.30;99.90;;;;;;5035878;28;20903;-80
2022/04/08 12:06:34;;;;;;;0.30;0.20;;;7.40;99.90;;;;;;5036038;28;20431;-81
2022/04/08 12:09:03;;;;;;;0.30;0.30;;;7.40;99.90;;;;;;5035930;28;20458;-82
2022/04/08 12:11:31;;;;;;;0.30;0.30;;;7.30;99.90;;;;;;5035586;28;20997;-81
2022/04/08 12:13:58;;;;;;;0.30;0.20;;;7.20;99.90;;;;;;5036475;28;20434;-81
2022/04/08 12:16:30;;;;;;;0.30;0.30;;;7.10;99.90;;;;;;5036089;28;20423;-80
2022/04/08 12:18:56;;;;;;;0.40;0.30;;;7.10;99.90;;;;;;5035834;28;20420;-81
2022/04/08 12:21:25;;;;;;;1.00;0.87;;;7.20;99.90;;;;;;5037017;28;20470;-80
2022/04/08 12:23:54;;;;;;;0.30;0.30;;;7.20;99.90;;;;;;5036782;28;20427;-80
2022/04/08 12:26:26;;;;;;;0.30;0.30;;;7.20;99.90;;;;;;5035674;28;20461;-81
2022/04/08 12:29:06;;;;;;;0.30;0.20;;;7.40;99.90;;;;;;5035615;28;20470;-80
2022/04/08 12:31:33;;;;;;;0.30;0.23;;;7.40;99.90;;;;;;5035177;28;20473;-80
2022/04/08 12:34:02;;;;;;;0.30;0.30;;;7.30;99.90;;;;;;5035303;28;20451;-80
2022/04/08 12:36:29;;;;;;;0.30;0.30;;;7.30;99.90;;;;;;5035472;28;20430;-80
2022/04/08 12:38:56;;;;;;;0.30;0.30;;;7.30;99.90;;;;;;5035370;28;20485;-81
2022/04/08 12:41:25;;;;;;;0.30;0.27;;;7.40;99.90;;;;;;5035087;28;20470;-79
2022/04/08 12:43:54;;;;;;;0.30;0.30;;;7.50;99.90;;;;;;5035210;28;20513;-80
2022/04/08 12:46:21;;;;;;;0.30;0.30;;;7.30;99.90;;;;;;5034834;28;20545;-79
2022/04/08 12:48:48;;;;;;;0.30;0.30;;;7.20;99.90;;;;;;5035134;28;20453;-79
2022/04/08 12:51:15;;;;;;;0.30;0.30;;;7.20;99.90;;;;;;5034810;28;21086;-79
2022/04/08 12:53:41;;;;;;;0.30;0.30;;;7.20;99.90;;;;;;5035146;28;20439;-78
2022/04/08 12:56:08;;;;;;;0.30;0.30;;;7.20;99.90;;;;;;5035053;28;20451;-79
2022/04/08 12:58:36;;;;;;;0.30;0.20;;;7.20;99.90;;;;;;5034689;28;20970;-79
2022/04/08 13:01:03;;;;;;;0.30;0.20;;;7.20;99.90;;;;;;5034973;28;20473;-80